createdAt,value
2023-03-31T00:01:42.229Z,98775.81
2023-03-31T00:04:13.881Z,98774.69
2023-03-31T00:06:42.957Z,98785.94
2023-03-31T00:09:19.253Z,98791.22
2023-03-31T00:11:47.480Z,98777.44
2023-03-31T00:14:16.278Z,98785.34
2023-03-31T00:16:45.804Z,98779.38
2023-03-31T00:19:20.893Z,98782.28
2023-03-31T00:22:05.618Z,98773.38
2023-03-31T00:24:33.938Z,98779.66
2023-03-31T00:27:05.922Z,98774.09
2023-03-31T00:29:36.253Z,98785.66
2023-03-31T00:32:03.624Z,98775.38
2023-03-31T00:34:31.027Z,98773.91
2023-03-31T00:37:02.794Z,98775.03
2023-03-31T00:39:35.586Z,98776.22
2023-03-31T00:42:04.451Z,98776.53
2023-03-31T00:44:34.531Z,98768.63
2023-03-31T00:47:13.197Z,98770.31
2023-03-31T00:49:54.753Z,98767.13
2023-03-31T00:52:37.744Z,98772.09
2023-03-31T00:55:13.163Z,98772.66
2023-03-31T00:57:43.775Z,98765.47
2023-03-31T01:00:16.778Z,98768.25
2023-03-31T01:02:52.738Z,98762.06
2023-03-31T01:05:31.643Z,98761.13
2023-03-31T01:08:00.792Z,98759.25
2023-03-31T01:10:33.345Z,98758.53
2023-03-31T01:13:00.668Z,98759.75
2023-03-31T01:15:29.054Z,98765.78
2023-03-31T01:17:58.608Z,98755.66
2023-03-31T01:20:28.734Z,98759.00
2023-03-31T01:23:21.114Z,98762.50
2023-03-31T01:26:08.081Z,98764.28
2023-03-31T01:28:53.330Z,98752.19
2023-03-31T01:31:42.577Z,98765.78
2023-03-31T01:34:37.586Z,98763.03
2023-03-31T01:37:33.038Z,98764.63
2023-03-31T01:40:10.892Z,98755.66
2023-03-31T01:42:53.148Z,98767.75
2023-03-31T01:45:41.966Z,98754.09
2023-03-31T01:48:18.506Z,98754.34
2023-03-31T01:50:48.866Z,98751.78
2023-03-31T01:53:42.307Z,98746.66
2023-03-31T01:56:35.367Z,98740.53
2023-03-31T01:59:05.688Z,98747.38
2023-03-31T02:01:38.787Z,98742.53
2023-03-31T02:04:24.005Z,98733.41
2023-03-31T02:06:58.487Z,98739.94
2023-03-31T02:09:32.759Z,98738.31
2023-03-31T02:12:02.581Z,98749.47
2023-03-31T02:14:32.471Z,98751.25
2023-03-31T02:17:02.639Z,98744.22
2023-03-31T02:19:39.908Z,98752.16
2023-03-31T02:22:10.134Z,98753.81
2023-03-31T02:24:41.068Z,98761.09
2023-03-31T02:27:16.254Z,98759.06
2023-03-31T02:29:43.783Z,98749.47
2023-03-31T02:32:11.206Z,98753.41
2023-03-31T02:34:38.497Z,98752.22
2023-03-31T02:37:06.686Z,98748.31
2023-03-31T02:39:40.610Z,98743.38
2023-03-31T02:42:09.671Z,98747.63
2023-03-31T02:44:39.767Z,98739.53
2023-03-31T02:47:10.401Z,98745.31
2023-03-31T02:49:43.896Z,98745.31
2023-03-31T02:52:29.741Z,98735.69
2023-03-31T02:55:15.120Z,98733.53
2023-03-31T02:57:57.969Z,98728.44
2023-03-31T03:00:43.734Z,98722.91
2023-03-31T03:03:14.699Z,98715.75
2023-03-31T03:05:59.200Z,98718.16
2023-03-31T03:08:42.679Z,98709.75
2023-03-31T03:11:22.179Z,98718.66
2023-03-31T03:14:06.414Z,98711.81
2023-03-31T03:16:45.611Z,98717.00
2023-03-31T03:19:20.804Z,98717.41
2023-03-31T03:21:48.687Z,98713.09
2023-03-31T03:24:30.035Z,98704.09
2023-03-31T03:26:57.972Z,98703.75
2023-03-31T03:29:27.402Z,98703.94
2023-03-31T03:31:55.022Z,98704.53
2023-03-31T03:34:23.470Z,98696.06
2023-03-31T03:36:51.010Z,98698.91
2023-03-31T03:39:18.403Z,98691.88
2023-03-31T03:41:47.179Z,98692.63
2023-03-31T03:44:15.678Z,98687.75
2023-03-31T03:46:45.510Z,98688.72
2023-03-31T03:49:12.816Z,98685.25
2023-03-31T03:51:40.297Z,98687.09
2023-03-31T03:54:07.722Z,98674.63
2023-03-31T03:56:36.156Z,98675.63
2023-03-31T03:59:03.798Z,98676.88
2023-03-31T04:01:31.148Z,98686.47
2023-03-31T04:03:58.519Z,98680.66
2023-03-31T04:06:26.293Z,98675.78
2023-03-31T04:08:54.494Z,98680.41
2023-03-31T04:11:22.034Z,98675.38
2023-03-31T04:13:50.532Z,98679.88
2023-03-31T04:16:18.093Z,98672.13
2023-03-31T04:18:48.985Z,98674.72
2023-03-31T04:21:25.395Z,98668.28
2023-03-31T04:24:04.839Z,98656.38
2023-03-31T04:26:43.735Z,98658.16
2023-03-31T04:29:16.830Z,98655.81
2023-03-31T04:31:46.241Z,98657.88
2023-03-31T04:34:15.979Z,98651.50
2023-03-31T04:36:48.071Z,98662.38
2023-03-31T04:39:18.075Z,98657.41
2023-03-31T04:41:45.689Z,98659.09
2023-03-31T04:44:13.266Z,98659.38
2023-03-31T04:46:40.565Z,98655.91
2023-03-31T04:49:15.909Z,98653.16
2023-03-31T04:51:43.306Z,98646.91
2023-03-31T04:54:10.976Z,98645.06
2023-03-31T04:56:38.258Z,98643.31
2023-03-31T04:59:11.993Z,98648.06
2023-03-31T05:01:39.337Z,98640.19
2023-03-31T05:04:07.045Z,98639.50
2023-03-31T05:06:34.673Z,98637.53
2023-03-31T05:09:02.122Z,98626.06
2023-03-31T05:11:30.609Z,98632.50
2023-03-31T05:13:58.051Z,98629.34
2023-03-31T05:16:25.891Z,98628.91
2023-03-31T05:18:54.371Z,98620.50
2023-03-31T05:21:22.346Z,98626.59
2023-03-31T05:23:53.740Z,98624.50
2023-03-31T05:26:22.584Z,98627.03
2023-03-31T05:28:49.983Z,98626.31
2023-03-31T05:31:17.435Z,98618.97
2023-03-31T05:33:44.845Z,98621.97
2023-03-31T05:36:17.681Z,98620.75
2023-03-31T05:38:45.028Z,98627.44
2023-03-31T05:41:12.499Z,98623.53
2023-03-31T05:43:40.263Z,98623.94
2023-03-31T05:46:08.572Z,98620.84
2023-03-31T05:48:37.741Z,98624.19
2023-03-31T05:51:05.420Z,98613.03
2023-03-31T05:53:34.356Z,98606.53
2023-03-31T05:56:04.316Z,98609.47
2023-03-31T05:58:32.093Z,98596.72
2023-03-31T06:01:10.843Z,98592.31
2023-03-31T06:03:43.880Z,98593.66
2023-03-31T06:06:16.651Z,98596.34
2023-03-31T06:08:46.010Z,98595.84
2023-03-31T06:11:16.670Z,98598.25
2023-03-31T06:13:44.144Z,98598.38
2023-03-31T06:16:13.432Z,98604.63
2023-03-31T06:18:42.372Z,98607.53
2023-03-31T06:21:17.819Z,98603.66
2023-03-31T06:23:46.419Z,98609.94
2023-03-31T06:26:19.549Z,98604.06
2023-03-31T06:28:47.256Z,98615.75
2023-03-31T06:31:18.356Z,98606.56
2023-03-31T06:33:47.285Z,98605.19
2023-03-31T06:36:17.799Z,98611.31
2023-03-31T06:38:45.929Z,98606.19
2023-03-31T06:41:16.559Z,98597.19
2023-03-31T06:43:43.817Z,98606.63
2023-03-31T06:46:12.006Z,98610.38
2023-03-31T06:48:39.923Z,98596.06
2023-03-31T06:51:09.332Z,98592.50
2023-03-31T06:53:37.200Z,98591.16
2023-03-31T06:56:06.988Z,98584.66
2023-03-31T06:58:34.298Z,98586.97
2023-03-31T07:01:04.240Z,98588.66
2023-03-31T07:03:32.876Z,98588.91
2023-03-31T07:06:02.220Z,98589.44
2023-03-31T07:08:29.691Z,98587.38
2023-03-31T07:10:59.579Z,98586.78
2023-03-31T07:13:28.097Z,98585.91
2023-03-31T07:15:57.826Z,98586.59
2023-03-31T07:18:26.482Z,98589.16
2023-03-31T07:20:54.056Z,98573.47
2023-03-31T07:23:21.576Z,98579.53
2023-03-31T07:25:49.068Z,98579.28
2023-03-31T07:28:16.983Z,98575.09
2023-03-31T07:30:44.532Z,98572.25
2023-03-31T07:33:12.097Z,98562.84
2023-03-31T07:35:41.787Z,98564.03
2023-03-31T07:38:11.572Z,98562.13
2023-03-31T07:40:40.358Z,98558.38
2023-03-31T07:43:08.999Z,98553.19
2023-03-31T07:45:40.112Z,98554.78
2023-03-31T07:48:08.545Z,98553.41
2023-03-31T07:50:37.070Z,98542.44
2023-03-31T07:53:04.419Z,98544.25
2023-03-31T07:55:32.757Z,98534.03
2023-03-31T07:58:00.226Z,98521.84
2023-03-31T08:00:27.889Z,98517.50
2023-03-31T08:02:54.937Z,98516.94
2023-03-31T08:05:23.475Z,98514.38
2023-03-31T08:07:52.217Z,98510.38
2023-03-31T08:10:23.665Z,98498.91
2023-03-31T08:12:51.447Z,98497.22
2023-03-31T08:15:19.348Z,98489.25
2023-03-31T08:17:47.579Z,98478.72
2023-03-31T08:20:15.673Z,98472.19
2023-03-31T08:22:42.997Z,98482.38
2023-03-31T08:25:10.762Z,98467.56
2023-03-31T08:27:41.059Z,98480.50
2023-03-31T08:30:11.758Z,98475.97
2023-03-31T08:32:39.189Z,98465.19
2023-03-31T08:35:07.028Z,98460.03
2023-03-31T08:37:34.490Z,98459.72
2023-03-31T08:40:09.866Z,98453.22
2023-03-31T08:42:50.830Z,98451.00
2023-03-31T08:45:43.282Z,98435.25
2023-03-31T08:48:26.024Z,98430.25
2023-03-31T08:51:06.039Z,98430.72
2023-03-31T08:53:55.976Z,98422.97
2023-03-31T08:56:27.617Z,98413.63
2023-03-31T08:58:56.027Z,98416.72
2023-03-31T09:01:56.400Z,98414.53
2023-03-31T09:04:33.588Z,98426.94
2023-03-31T09:07:18.341Z,98424.31
2023-03-31T09:10:04.948Z,98419.72
2023-03-31T09:13:00.452Z,98411.38
2023-03-31T09:15:29.133Z,98403.84
2023-03-31T09:18:04.251Z,98401.19
2023-03-31T09:20:37.298Z,98405.56
2023-03-31T09:23:14.045Z,98409.03
2023-03-31T09:25:44.911Z,98398.09
2023-03-31T09:28:21.600Z,98387.63
2023-03-31T09:30:50.456Z,98379.75
2023-03-31T09:33:32.447Z,98377.72
2023-03-31T09:36:03.565Z,98393.97
2023-03-31T09:38:31.635Z,98381.19
2023-03-31T09:41:01.852Z,98381.31
2023-03-31T09:43:35.859Z,98375.91
2023-03-31T09:46:16.873Z,98375.63
2023-03-31T09:49:02.780Z,98374.41
2023-03-31T09:51:35.283Z,98370.06
2023-03-31T09:54:20.390Z,98365.13
2023-03-31T09:56:53.224Z,98361.09
2023-03-31T09:59:31.058Z,98359.16
2023-03-31T10:02:03.294Z,98349.50
2023-03-31T10:04:34.058Z,98347.81
2023-03-31T10:07:04.445Z,98335.44
2023-03-31T10:09:34.547Z,98331.81
2023-03-31T10:12:16.495Z,98334.59
2023-03-31T10:14:52.095Z,98324.56
2023-03-31T10:17:23.942Z,98316.56
2023-03-31T10:19:58.652Z,98313.47
2023-03-31T10:22:32.732Z,98317.56
2023-03-31T10:25:20.876Z,98325.56
2023-03-31T10:27:52.408Z,98308.25
2023-03-31T10:30:35.719Z,98310.81
2023-03-31T10:33:22.151Z,98308.84
2023-03-31T10:35:58.512Z,98304.63
2023-03-31T10:38:30.977Z,98298.31
2023-03-31T10:41:00.119Z,98304.00
2023-03-31T10:43:33.344Z,98300.38
2023-03-31T10:46:01.003Z,98300.28
2023-03-31T10:48:34.610Z,98298.81
2023-03-31T10:51:14.928Z,98293.41
2023-03-31T10:53:53.606Z,98294.59
2023-03-31T10:56:42.395Z,98289.25
2023-03-31T10:59:40.843Z,98282.84
2023-03-31T11:02:48.658Z,98282.25
2023-03-31T11:05:26.742Z,98280.31
2023-03-31T11:08:20.184Z,98267.38
2023-03-31T11:11:09.536Z,98269.16
2023-03-31T11:14:05.532Z,98268.94
2023-03-31T11:16:41.902Z,98261.19
2023-03-31T11:19:39.112Z,98258.06
2023-03-31T11:22:24.875Z,98252.97
2023-03-31T11:25:15.144Z,98244.06
2023-03-31T11:28:00.840Z,98248.38
2023-03-31T11:30:37.631Z,98239.69
2023-03-31T11:33:37.167Z,98235.78
2023-03-31T11:36:19.234Z,98229.41
2023-03-31T11:38:58.472Z,98218.13
2023-03-31T11:41:47.894Z,98210.69
2023-03-31T11:44:19.401Z,98204.00
2023-03-31T11:46:50.722Z,98202.50
2023-03-31T11:49:31.318Z,98193.69
2023-03-31T11:52:10.149Z,98192.50
2023-03-31T11:54:55.897Z,98192.44
2023-03-31T11:57:31.879Z,98193.47
2023-03-31T12:00:24.089Z,98184.16
2023-03-31T12:03:08.350Z,98186.19
2023-03-31T12:05:40.854Z,98180.06
2023-03-31T12:08:18.979Z,98178.34
2023-03-31T12:10:54.867Z,98159.72
2023-03-31T12:13:39.327Z,98151.03
2023-03-31T12:16:36.576Z,98154.75
2023-03-31T12:19:14.480Z,98155.75
2023-03-31T12:21:47.883Z,98151.28
2023-03-31T12:24:15.365Z,98146.94
2023-03-31T12:27:02.848Z,98153.44
2023-03-31T12:30:04.860Z,98137.91
2023-03-31T12:32:40.777Z,98135.53
2023-03-31T12:35:46.073Z,98124.28
2023-03-31T12:38:34.867Z,98129.22
2023-03-31T12:41:41.017Z,98118.13
2023-03-31T12:44:26.063Z,98119.69
2023-03-31T12:47:25.753Z,98126.97
2023-03-31T12:50:11.992Z,98114.28
2023-03-31T12:53:06.935Z,98109.44
2023-03-31T12:55:37.443Z,98098.09
2023-03-31T12:58:42.251Z,98104.63
2023-03-31T13:01:22.796Z,98101.69
2023-03-31T13:04:12.652Z,98092.97
2023-03-31T13:06:40.033Z,98096.06
2023-03-31T13:09:33.599Z,98081.44
2023-03-31T13:12:08.120Z,98084.38
2023-03-31T13:14:42.893Z,98085.06
2023-03-31T13:17:26.426Z,98074.38
2023-03-31T13:19:55.748Z,98075.31
2023-03-31T13:22:37.472Z,98069.03
2023-03-31T13:25:40.935Z,98057.78
2023-03-31T13:28:40.383Z,98054.03
2023-03-31T13:31:15.267Z,98050.44
2023-03-31T13:34:04.479Z,98039.31
2023-03-31T13:36:35.113Z,98030.50
2023-03-31T13:39:46.158Z,98021.69
2023-03-31T13:42:51.324Z,98015.19
2023-03-31T13:45:31.158Z,98017.13
2023-03-31T13:48:35.692Z,98015.19
2023-03-31T13:51:22.617Z,98012.75
2023-03-31T13:53:58.030Z,97995.88
2023-03-31T13:56:47.967Z,97993.19
2023-03-31T13:59:33.558Z,97988.25
2023-03-31T14:02:27.831Z,97985.72
2023-03-31T14:05:11.453Z,97980.41
2023-03-31T14:07:57.339Z,97968.34
2023-03-31T14:10:41.015Z,97977.31
2023-03-31T14:13:19.689Z,97960.81
2023-03-31T14:15:58.350Z,97955.84
2023-03-31T14:18:27.532Z,97962.19
2023-03-31T14:21:13.992Z,97949.66
2023-03-31T14:24:10.521Z,97944.53
2023-03-31T14:27:00.465Z,97950.16
2023-03-31T14:29:34.508Z,97946.06
2023-03-31T14:32:14.836Z,97934.25
2023-03-31T14:35:02.845Z,97941.22
2023-03-31T14:37:31.148Z,97941.41
2023-03-31T14:39:59.362Z,97938.66
2023-03-31T14:42:41.055Z,97933.06
2023-03-31T14:45:20.932Z,97933.16
2023-03-31T14:48:03.132Z,97927.41
2023-03-31T14:50:36.137Z,97924.28
2023-03-31T14:53:05.187Z,97926.09
2023-03-31T14:55:44.702Z,97922.94
2023-03-31T14:58:37.950Z,97916.31
2023-03-31T15:01:07.764Z,97899.59
2023-03-31T15:03:39.009Z,97897.34
2023-03-31T15:06:06.929Z,97893.59
2023-03-31T15:08:37.711Z,97903.34
2023-03-31T15:11:13.005Z,97903.25
2023-03-31T15:14:00.631Z,97902.72
2023-03-31T15:16:43.327Z,97893.84
2023-03-31T15:19:31.393Z,97889.28
2023-03-31T15:22:19.627Z,97887.72
2023-03-31T15:24:49.817Z,97891.69
2023-03-31T15:27:38.106Z,97889.41
2023-03-31T15:30:25.762Z,97891.81
2023-03-31T15:35:41.595Z,97892.19
2023-03-31T15:38:12.402Z,97897.50
2023-03-31T15:40:44.253Z,97899.75
2023-03-31T15:45:52.705Z,97894.44
2023-03-31T15:48:51.062Z,97892.13
2023-03-31T15:51:34.516Z,97893.22
2023-03-31T15:54:02.389Z,97887.31
2023-03-31T15:57:00.971Z,97866.16
2023-03-31T15:59:55.543Z,97873.31
2023-03-31T16:02:26.789Z,97874.53
2023-03-31T16:04:59.867Z,97882.00
2023-03-31T16:07:33.883Z,97883.91
2023-03-31T16:10:10.498Z,97884.19
2023-03-31T16:12:43.862Z,97883.91
2023-03-31T16:15:23.705Z,97899.59
2023-03-31T16:18:00.458Z,97890.94
2023-03-31T16:20:37.407Z,97895.56
2023-03-31T16:23:16.717Z,97895.66
2023-03-31T16:25:44.882Z,97886.81
2023-03-31T16:28:20.862Z,97877.97
2023-03-31T16:30:55.088Z,97870.97
2023-03-31T16:33:25.089Z,97868.31
2023-03-31T16:35:56.508Z,97855.50
2023-03-31T16:38:26.881Z,97841.53
2023-03-31T16:40:59.483Z,97824.41
2023-03-31T16:43:28.852Z,97821.69
2023-03-31T16:45:58.396Z,97811.09
2023-03-31T16:48:29.051Z,97807.59
2023-03-31T16:50:59.071Z,97810.72
2023-03-31T16:53:34.740Z,97806.75
2023-03-31T16:56:03.922Z,97801.00
2023-03-31T16:58:31.777Z,97789.03
2023-03-31T17:01:00.246Z,97797.25
2023-03-31T17:03:28.583Z,97804.56
2023-03-31T17:05:59.283Z,97797.31
2023-03-31T17:08:28.042Z,97802.22
2023-03-31T17:11:00.265Z,97795.22
2023-03-31T17:13:28.105Z,97797.75
2023-03-31T17:18:43.877Z,97791.59
2023-03-31T17:21:13.899Z,97776.50
2023-03-31T17:23:41.792Z,97777.59
2023-03-31T17:26:13.039Z,97790.94
2023-03-31T17:28:41.376Z,97791.63
2023-03-31T17:31:17.419Z,97791.22
2023-03-31T17:33:48.030Z,97784.13
2023-03-31T17:36:17.320Z,97773.59
2023-03-31T17:38:47.882Z,97780.41
2023-03-31T17:41:19.785Z,97773.78
2023-03-31T17:43:49.283Z,97777.25
2023-03-31T17:46:19.319Z,97777.81
2023-03-31T17:48:47.870Z,97777.25
2023-03-31T17:51:19.443Z,97772.88
2023-03-31T17:53:50.159Z,97766.09
2023-03-31T17:56:18.558Z,97772.69
2023-03-31T17:58:48.487Z,97760.53
2023-03-31T18:01:17.112Z,97764.69
2023-03-31T18:03:46.584Z,97779.19
2023-03-31T18:06:16.078Z,97781.19
2023-03-31T18:08:45.832Z,97773.63
2023-03-31T18:11:20.160Z,97792.38
2023-03-31T18:13:48.361Z,97797.66
2023-03-31T18:16:17.874Z,97787.97
2023-03-31T18:18:46.383Z,97789.38
2023-03-31T18:21:15.050Z,97789.59
2023-03-31T18:23:45.228Z,97801.34
2023-03-31T18:26:15.002Z,97790.22
2023-03-31T18:28:43.904Z,97792.91
2023-03-31T18:31:13.130Z,97797.72
2023-03-31T18:33:42.269Z,97790.75
2023-03-31T18:36:20.702Z,97802.81
2023-03-31T18:38:50.476Z,97811.59
2023-03-31T18:41:20.083Z,97809.22
2023-03-31T18:43:48.086Z,97804.38
2023-03-31T18:46:17.108Z,97804.72
2023-03-31T18:48:49.352Z,97800.19
2023-03-31T18:51:18.684Z,97789.25
2023-03-31T18:53:47.414Z,97794.75
2023-03-31T18:56:17.534Z,97785.66
2023-03-31T18:58:45.901Z,97790.09
2023-03-31T19:01:15.097Z,97790.72
2023-03-31T19:03:44.644Z,97794.94
2023-03-31T19:06:17.839Z,97793.38
2023-03-31T19:08:46.013Z,97789.56
2023-03-31T19:11:16.335Z,97795.81
2023-03-31T19:13:45.011Z,97803.25
2023-03-31T19:16:14.473Z,97796.47
2023-03-31T19:18:44.191Z,97797.91
2023-03-31T19:21:13.186Z,97794.25
2023-03-31T19:23:41.653Z,97803.09
2023-03-31T19:26:14.460Z,97801.94
2023-03-31T19:28:43.240Z,97810.09
2023-03-31T19:31:12.906Z,97812.13
2023-03-31T19:33:40.835Z,97804.81
2023-03-31T19:36:09.450Z,97807.94
2023-03-31T19:38:37.823Z,97798.78
2023-03-31T19:41:07.472Z,97798.59
2023-03-31T19:43:38.237Z,97811.03
2023-03-31T19:46:06.519Z,97820.81
2023-03-31T19:48:35.880Z,97816.25
2023-03-31T19:51:05.581Z,97814.34
2023-03-31T19:53:41.442Z,97811.69
2023-03-31T19:56:14.087Z,97814.84
2023-03-31T19:58:45.264Z,97812.97
2023-03-31T20:01:19.190Z,97810.53
2023-03-31T20:03:47.740Z,97806.38
2023-03-31T20:06:17.982Z,97806.91
2023-03-31T20:08:51.121Z,97811.38
2023-03-31T20:11:20.261Z,97817.94
2023-03-31T20:13:48.916Z,97822.19
2023-03-31T20:16:22.866Z,97822.78
2023-03-31T20:19:05.190Z,97821.31
2023-03-31T20:21:37.028Z,97826.19
2023-03-31T20:24:06.506Z,97820.72
2023-03-31T20:26:42.154Z,97820.91
2023-03-31T20:29:11.897Z,97811.00
2023-03-31T20:31:42.258Z,97819.44
2023-03-31T20:34:35.322Z,97828.56
2023-03-31T20:37:15.576Z,97822.19
2023-03-31T20:39:43.585Z,97823.22
2023-03-31T20:42:13.262Z,97824.69
2023-03-31T20:44:41.433Z,97836.81
2023-03-31T20:47:11.489Z,97843.78
2023-03-31T20:49:39.617Z,97843.63
2023-03-31T20:52:07.534Z,97841.72
2023-03-31T20:54:36.812Z,97837.59
2023-03-31T20:57:06.489Z,97850.72
2023-03-31T20:59:34.573Z,97843.84
2023-03-31T21:02:02.683Z,97848.22
2023-03-31T21:04:32.376Z,97852.34
2023-03-31T21:07:00.172Z,97847.94
2023-03-31T21:09:28.689Z,97853.88
2023-03-31T21:11:56.570Z,97864.22
2023-03-31T21:14:25.121Z,97854.63
2023-03-31T21:16:57.201Z,97858.59
2023-03-31T21:19:38.265Z,97861.81
2023-03-31T21:22:06.845Z,97850.16
2023-03-31T21:24:35.429Z,97852.97
2023-03-31T21:27:05.904Z,97862.50
2023-03-31T21:29:35.841Z,97856.97
2023-03-31T21:32:07.589Z,97855.25
2023-03-31T21:34:42.206Z,97855.59
2023-03-31T21:37:18.692Z,97848.75
2023-03-31T21:39:47.314Z,97858.34
2023-03-31T21:42:21.227Z,97852.59
2023-03-31T21:44:50.345Z,97856.81
2023-03-31T21:47:18.428Z,97849.59
2023-03-31T21:49:51.309Z,97849.19
2023-03-31T21:52:20.631Z,97847.34
2023-03-31T21:54:53.522Z,97851.38
2023-03-31T21:57:20.849Z,97854.28
2023-03-31T21:59:50.334Z,97855.41
2023-03-31T22:02:30.238Z,97849.19
2023-03-31T22:04:59.681Z,97850.69
2023-03-31T22:07:27.409Z,97857.00
2023-03-31T22:09:54.999Z,97859.16
2023-03-31T22:12:24.708Z,97863.34
2023-03-31T22:14:52.149Z,97858.59
2023-03-31T22:17:21.062Z,97873.88
2023-03-31T22:19:49.429Z,97868.22
2023-03-31T22:22:17.234Z,97867.84
2023-03-31T22:24:44.538Z,97865.38
2023-03-31T22:27:13.393Z,97863.59
2023-03-31T22:29:42.180Z,97868.59
2023-03-31T22:32:09.452Z,97869.81
2023-03-31T22:34:37.097Z,97859.25
2023-03-31T22:37:05.848Z,97871.44
2023-03-31T22:39:34.482Z,97862.47
2023-03-31T22:42:01.916Z,97873.88
2023-03-31T22:44:29.538Z,97863.69
2023-03-31T22:46:58.202Z,97859.31
2023-03-31T22:49:33.048Z,97866.19
2023-03-31T22:52:00.645Z,97848.91
2023-03-31T22:54:28.099Z,97841.72
2023-03-31T22:57:01.893Z,97841.22
2023-03-31T22:59:29.161Z,97842.53
2023-03-31T23:01:56.675Z,97848.56
2023-03-31T23:04:24.069Z,97830.25
2023-03-31T23:06:53.163Z,97831.09
2023-03-31T23:09:22.321Z,97844.75
2023-03-31T23:11:49.757Z,97822.63
2023-03-31T23:14:18.999Z,97828.47
2023-03-31T23:16:46.547Z,97822.97
2023-03-31T23:19:13.896Z,97824.34
2023-03-31T23:21:42.330Z,97830.28
2023-03-31T23:24:11.117Z,97829.44
2023-03-31T23:26:38.578Z,97827.41
2023-03-31T23:29:06.943Z,97835.19
2023-03-31T23:31:35.935Z,97826.38
2023-03-31T23:34:03.257Z,97826.72
2023-03-31T23:36:32.095Z,97828.22
2023-03-31T23:38:59.732Z,97829.25
2023-03-31T23:41:29.191Z,97835.06
2023-03-31T23:43:58.714Z,97827.03
2023-03-31T23:46:27.235Z,97835.25
2023-03-31T23:48:55.001Z,97824.50
2023-03-31T23:51:22.825Z,97820.34
2023-03-31T23:53:50.455Z,97823.84
2023-03-31T23:56:18.257Z,97819.78
2023-03-31T23:58:45.630Z,97817.38
